KORD

Chicago O'Hare International Airport

Code ICAO KORD
Code IATA ORD
Nom Chicago O'Hare International Airport
Emplacement Chicago, Illinois, US
Élévation 672 pieds / 204.8 mètres
Latitude 41.97859955
Longitude -87.90480042
METAR KORD 130251Z 24006KT 10SM FEW095 SCT130 BKN250 28/14 A2982 RMK AO2 SLP091 T02830144 55006
Informations extras Afficher cartes
Piste Longueur Largeur Surface Élévation
04L 7500 ft 150 ft ASP 656 ft
04R 8075 ft 150 ft ASP 661 ft
09L 7500 ft 150 ft ASP 668 ft
09R 7967 ft 150 ft ASP 660 ft
10C 10801 ft 200 ft CON 669 ft
10L 13000 ft 150 ft CON 672 ft
14L 10005 ft 150 ft ASP 653 ft
15 9686 ft 200 ft ASP 666 ft
18 5332 ft 150 ft ASP 646 ft
22R 7500 ft 150 ft ASP 648 ft
22L 8075 ft 150 ft ASP 651 ft
27R 7500 ft 150 ft ASP 664 ft
27L 7967 ft 150 ft ASP 650 ft
28C 10801 ft 200 ft CON 650 ft
28R 13000 ft 150 ft CON 651 ft
32R 10005 ft 150 ft ASP 648 ft
33 9686 ft 200 ft ASP 654 ft
36 5332 ft 150 ft ASP 653 ft